Portada
METAR-TAF:

METAR-TAF

Aeroports :

Funchal, Madeira, Portugal

latitud: 32-41-52N, longitud: 016-46-28W, altitud: 59 m

Observació

L'informe es va fer fa 32 minuts, a les 00:30 UTC
Vent 13 kt del Nord/Nord-Est
Temperatura 16°C
Humitat 82%
Pressió 1030 hPa
Visibilitat 10 km o més
Cel ennuvolat a una alçada de 1500 ft
Núvols disperses a una alçada de 3000 ft

METAR: LPMA 200030Z 02013KT 9999 BKN015 SCT030 16/13 Q1030

Hora: 01:02 (01:02 UTC)

Pronòstic

L'informe es va fer fa 2 hores i 2 minuts, a les 23:00 UTC
Pronòstic vàlid del 20 a les 00 UTC al 20 a les 24 UTC
Vent 12 kt del Nord/Nord-Est
Visibilitat 10 km o més
Núvols disperses a una alçada de 1500 ft
Temporalment
l' 20 a les 00 UTC al 20 a les 18 UTC
Vent 15 kt del Nord/Nord-Est amb ràfegues de 25 kt
Cel ennuvolat a una alçada de 1500 ft

TAF: LPMA 192300Z 2000/2024 02012KT 9999 SCT015 TEMPO 2000/2018 02015G25KT BKN015

Observacions i pronòstics meteorològics de més de 4000 aeroports (METAR i TAF).

Les estacions disponibles són els punts grocs i vermells al mapa.

Posi el ratolí al punt desitjat per veure el nom de l'estació.

Feu clic per veure les observacions i els pronòstics meteorològics.

Per canviar el mapa: feu clic els botons verds amb una creu de color negre per apropar; al botó verd amb un guió per allunyar la imatge; o en les fletxes verdes per a mapes adjacents.


METAR-TAF: